createdAt,value
2022-12-13T00:01:47.007Z,-0.30
2022-12-13T00:04:15.751Z,-0.20
2022-12-13T00:06:43.930Z,-0.20
2022-12-13T00:09:13.763Z,-0.10
2022-12-13T00:11:41.846Z,-0.10
2022-12-13T00:14:11.090Z,0.00
2022-12-13T00:16:40.921Z,0.00
2022-12-13T00:19:08.939Z,0.10
2022-12-13T00:21:36.965Z,0.10
2022-12-13T00:24:08.492Z,0.10
2022-12-13T00:26:36.702Z,0.10
2022-12-13T00:29:07.454Z,0.10
2022-12-13T00:31:58.852Z,0.10
2022-12-13T00:34:26.334Z,0.10
2022-12-13T00:36:54.944Z,0.20
2022-12-13T00:39:23.931Z,0.20
2022-12-13T00:41:52.051Z,0.10
2022-12-13T00:44:20.475Z,0.10
2022-12-13T00:46:48.622Z,0.10
2022-12-13T00:49:17.194Z,0.00
2022-12-13T00:51:48.243Z,0.00
2022-12-13T00:54:17.283Z,-0.10
2022-12-13T00:56:45.277Z,0.00
2022-12-13T00:59:15.872Z,-0.10
2022-12-13T01:01:44.063Z,-0.10
2022-12-13T01:04:12.781Z,-0.10
2022-12-13T01:06:42.270Z,-0.10
2022-12-13T01:09:17.171Z,-0.20
2022-12-13T01:11:46.356Z,-0.30
2022-12-13T01:14:14.765Z,-0.40
2022-12-13T01:16:42.856Z,-0.40
2022-12-13T01:19:10.987Z,-0.30
2022-12-13T01:21:39.775Z,-0.30
2022-12-13T01:24:08.913Z,-0.30
2022-12-13T01:26:38.491Z,-0.40
2022-12-13T01:29:06.614Z,-0.30
2022-12-13T01:31:34.948Z,-0.30
2022-12-13T01:34:10.255Z,-0.30
2022-12-13T01:36:39.109Z,-0.30
2022-12-13T01:39:14.691Z,-0.30
2022-12-13T01:41:45.182Z,-0.30
2022-12-13T01:44:46.278Z,-0.40
2022-12-13T01:47:16.220Z,-0.40
2022-12-13T01:49:44.497Z,-0.30
2022-12-13T01:52:15.893Z,-0.30
2022-12-13T01:54:50.099Z,-0.40
2022-12-13T01:57:21.591Z,-0.30
2022-12-13T01:59:51.427Z,-0.30
2022-12-13T02:02:19.598Z,-0.30
2022-12-13T02:04:54.446Z,-0.20
2022-12-13T02:07:27.629Z,-0.20
2022-12-13T02:09:58.891Z,-0.20
2022-12-13T02:12:30.499Z,-0.20
2022-12-13T02:15:00.902Z,-0.20
2022-12-13T02:17:45.345Z,-0.20
2022-12-13T02:20:49.638Z,-0.20
2022-12-13T02:23:50.521Z,-0.20
2022-12-13T02:26:41.663Z,-0.10
2022-12-13T02:29:38.105Z,-0.10
2022-12-13T02:32:16.663Z,-0.10
2022-12-13T02:34:50.437Z,-0.10
2022-12-13T02:37:25.374Z,-0.20
2022-12-13T02:40:01.842Z,-0.20
2022-12-13T02:42:35.945Z,-0.10
2022-12-13T02:45:08.904Z,-0.20
2022-12-13T02:47:43.379Z,-0.20
2022-12-13T02:50:14.936Z,-0.20
2022-12-13T02:52:46.498Z,-0.10
2022-12-13T02:55:17.536Z,-0.10
2022-12-13T02:57:48.627Z,-0.10
2022-12-13T03:00:19.379Z,0.00
2022-12-13T03:03:00.968Z,0.00
2022-12-13T03:05:59.575Z,0.00
2022-12-13T03:08:34.367Z,0.00
2022-12-13T03:11:07.360Z,0.00
2022-12-13T03:13:44.469Z,0.00
2022-12-13T03:16:23.486Z,0.00
2022-12-13T03:18:54.402Z,0.00
2022-12-13T03:21:22.461Z,0.00
2022-12-13T03:23:50.485Z,0.00
2022-12-13T03:26:21.915Z,-0.10
2022-12-13T03:28:50.615Z,-0.10
2022-12-13T03:31:19.017Z,0.00
2022-12-13T03:33:47.551Z,0.00
2022-12-13T03:36:18.932Z,0.10
2022-12-13T03:38:47.545Z,0.10
2022-12-13T03:41:18.027Z,0.10
2022-12-13T03:43:46.850Z,0.10
2022-12-13T03:46:14.883Z,0.00
2022-12-13T03:48:42.941Z,0.10
2022-12-13T03:51:10.981Z,0.10
2022-12-13T03:53:40.389Z,0.10
2022-12-13T03:56:08.883Z,0.00
2022-12-13T03:58:38.413Z,-0.10
2022-12-13T04:01:08.234Z,-0.10
2022-12-13T04:03:36.478Z,-0.10
2022-12-13T04:06:04.960Z,-0.10
2022-12-13T04:08:33.066Z,-0.10
2022-12-13T04:11:23.644Z,-0.10
2022-12-13T04:13:50.785Z,-0.10
2022-12-13T04:16:18.908Z,-0.10
2022-12-13T04:18:46.961Z,-0.10
2022-12-13T04:21:15.054Z,-0.10
2022-12-13T04:23:43.061Z,-0.10
2022-12-13T04:26:12.576Z,0.00
2022-12-13T04:28:40.619Z,0.00
2022-12-13T04:31:08.775Z,0.00
2022-12-13T04:33:36.876Z,0.00
2022-12-13T04:36:05.282Z,-0.10
2022-12-13T04:38:33.329Z,-0.10
2022-12-13T04:41:17.304Z,-0.10
2022-12-13T04:43:45.668Z,-0.10
2022-12-13T04:46:13.719Z,-0.20
2022-12-13T04:48:41.748Z,-0.20
2022-12-13T04:51:09.777Z,-0.20
2022-12-13T04:53:37.785Z,-0.30
2022-12-13T04:56:06.902Z,-0.30
2022-12-13T04:58:36.305Z,-0.40
2022-12-13T05:01:07.933Z,-0.40
2022-12-13T05:03:36.384Z,-0.40
2022-12-13T05:06:06.605Z,-0.30
2022-12-13T05:08:54.641Z,-0.30
2022-12-13T05:11:36.020Z,-0.40
2022-12-13T05:14:05.693Z,-0.40
2022-12-13T05:16:33.769Z,-0.40
2022-12-13T05:19:01.829Z,-0.50
2022-12-13T05:21:29.836Z,-0.50
2022-12-13T05:23:57.876Z,-0.40
2022-12-13T05:26:25.908Z,-0.40
2022-12-13T05:28:53.888Z,-0.40
2022-12-13T05:31:24.160Z,-0.40
2022-12-13T05:33:52.458Z,-0.30
2022-12-13T05:36:22.514Z,-0.40
2022-12-13T05:38:50.662Z,-0.40
2022-12-13T05:41:21.715Z,-0.40
2022-12-13T05:43:49.861Z,-0.30
2022-12-13T05:46:18.257Z,-0.30
2022-12-13T05:48:47.802Z,-0.30
2022-12-13T05:51:15.861Z,-0.30
2022-12-13T05:53:47.339Z,-0.20
2022-12-13T05:56:23.217Z,-0.20
2022-12-13T05:58:53.339Z,-0.30
2022-12-13T06:01:21.758Z,-0.30
2022-12-13T06:03:51.183Z,-0.30
2022-12-13T06:06:19.213Z,-0.30
2022-12-13T06:08:47.223Z,-0.30
2022-12-13T06:11:31.729Z,-0.30
2022-12-13T06:14:01.297Z,-0.40
2022-12-13T06:16:29.610Z,-0.50
2022-12-13T06:19:04.394Z,-0.40
2022-12-13T06:21:41.400Z,-0.40
2022-12-13T06:24:14.841Z,-0.40
2022-12-13T06:26:45.084Z,-0.50
2022-12-13T06:29:23.714Z,-0.60
2022-12-13T06:32:02.275Z,-0.60
2022-12-13T06:34:33.639Z,-0.60
2022-12-13T06:37:01.897Z,-0.60
2022-12-13T06:39:33.244Z,-0.60
2022-12-13T06:42:02.675Z,-0.60
2022-12-13T06:44:30.753Z,-0.70
2022-12-13T06:47:10.639Z,-0.70
2022-12-13T06:49:44.183Z,-0.50
2022-12-13T06:52:14.071Z,-0.50
2022-12-13T06:54:42.672Z,-0.50
2022-12-13T06:57:11.047Z,-0.50
2022-12-13T06:59:39.762Z,-0.60
2022-12-13T07:02:15.288Z,-0.50
2022-12-13T07:04:55.857Z,-0.50
2022-12-13T07:07:25.152Z,-0.40
2022-12-13T07:09:53.533Z,-0.40
2022-12-13T07:12:21.934Z,-0.40
2022-12-13T07:14:50.030Z,-0.40
2022-12-13T07:17:32.583Z,-0.40
2022-12-13T07:20:07.960Z,-0.30
2022-12-13T07:22:42.903Z,-0.40
2022-12-13T07:25:28.346Z,-0.40
2022-12-13T07:28:03.247Z,-0.50
2022-12-13T07:30:33.637Z,-0.50
2022-12-13T07:33:02.566Z,-0.40
2022-12-13T07:35:37.177Z,-0.40
2022-12-13T07:38:05.641Z,-0.30
2022-12-13T07:40:34.596Z,-0.20
2022-12-13T07:43:02.627Z,-0.20
2022-12-13T07:45:30.784Z,-0.20
2022-12-13T07:47:58.818Z,-0.10
2022-12-13T07:50:27.355Z,-0.10
2022-12-13T07:53:08.190Z,-0.20
2022-12-13T07:55:36.842Z,-0.20
2022-12-13T07:58:06.961Z,-0.20
2022-12-13T08:00:35.258Z,-0.20
2022-12-13T08:03:03.317Z,-0.20
2022-12-13T08:05:38.051Z,-0.20
2022-12-13T08:08:11.763Z,-0.10
2022-12-13T08:10:40.278Z,-0.10
2022-12-13T08:13:08.358Z,-0.20
2022-12-13T08:15:36.325Z,-0.20
2022-12-13T08:18:05.110Z,-0.20
2022-12-13T08:20:33.209Z,-0.10
2022-12-13T08:23:02.244Z,-0.20
2022-12-13T08:25:32.646Z,-0.30
2022-12-13T08:28:01.611Z,-0.20
2022-12-13T08:30:32.340Z,-0.10
2022-12-13T08:33:05.083Z,-0.10
2022-12-13T08:35:34.925Z,-0.10
2022-12-13T08:38:03.627Z,-0.10
2022-12-13T08:40:33.384Z,-0.10
2022-12-13T08:43:01.383Z,-0.20
2022-12-13T08:45:29.662Z,-0.20
2022-12-13T08:48:00.125Z,-0.20
2022-12-13T08:50:28.728Z,-0.20
2022-12-13T08:52:56.890Z,-0.10
2022-12-13T08:55:31.302Z,-0.10
2022-12-13T08:58:08.389Z,0.00
2022-12-13T09:00:37.188Z,0.00
2022-12-13T09:03:06.219Z,0.10
2022-12-13T09:05:38.345Z,0.00
2022-12-13T09:08:22.889Z,0.10
2022-12-13T09:11:00.617Z,0.10
2022-12-13T09:13:33.015Z,0.20
2022-12-13T09:16:05.986Z,0.20
2022-12-13T09:18:42.652Z,0.20
2022-12-13T09:21:12.718Z,0.10
2022-12-13T09:23:46.277Z,0.20
2022-12-13T09:26:16.423Z,0.10
2022-12-13T09:28:45.968Z,0.10
2022-12-13T09:31:15.825Z,0.10
2022-12-13T09:33:44.243Z,0.10
2022-12-13T09:36:14.531Z,0.20
2022-12-13T09:38:42.931Z,0.20
2022-12-13T09:41:20.138Z,0.20
2022-12-13T09:44:01.297Z,0.20
2022-12-13T09:46:34.632Z,0.20
2022-12-13T09:49:23.288Z,0.20
2022-12-13T09:52:10.187Z,0.20
2022-12-13T09:54:48.996Z,0.30
2022-12-13T09:57:32.431Z,0.20
2022-12-13T10:00:05.701Z,0.10
2022-12-13T10:02:43.323Z,0.10
2022-12-13T10:05:22.913Z,0.10
2022-12-13T10:07:54.162Z,0.10
2022-12-13T10:10:22.881Z,0.10
2022-12-13T10:12:56.889Z,0.20
2022-12-13T10:15:26.713Z,0.30
2022-12-13T10:17:56.615Z,0.30
2022-12-13T10:20:28.858Z,0.30
2022-12-13T10:23:31.236Z,0.30
2022-12-13T10:25:51.556Z,0.20
2022-12-13T10:28:26.452Z,0.20
2022-12-13T10:30:54.551Z,0.30
2022-12-13T10:33:30.592Z,0.30
2022-12-13T10:36:12.495Z,0.40
2022-12-13T10:38:42.812Z,0.50
2022-12-13T10:41:31.401Z,0.60
2022-12-13T10:44:11.264Z,0.60
2022-12-13T10:46:40.472Z,0.60
2022-12-13T10:49:18.431Z,0.60
2022-12-13T10:51:46.971Z,0.60
2022-12-13T10:54:20.629Z,0.60
2022-12-13T10:56:53.910Z,0.60
2022-12-13T10:59:28.468Z,0.60
2022-12-13T11:01:56.498Z,0.70
2022-12-13T11:04:31.442Z,0.70
2022-12-13T11:07:01.339Z,0.80
2022-12-13T11:09:38.366Z,0.70
2022-12-13T11:12:15.106Z,0.80
2022-12-13T11:14:51.468Z,0.70
2022-12-13T11:17:23.912Z,0.60
2022-12-13T11:19:55.027Z,0.60
2022-12-13T11:22:26.488Z,0.60
2022-12-13T11:25:00.679Z,0.60
2022-12-13T11:27:56.343Z,0.50
2022-12-13T11:30:27.830Z,0.60
2022-12-13T11:33:26.206Z,0.70
2022-12-13T11:36:09.392Z,0.70
2022-12-13T11:38:59.811Z,0.80
2022-12-13T11:41:33.070Z,0.80
2022-12-13T11:44:05.319Z,0.70
2022-12-13T11:46:41.397Z,0.60
2022-12-13T11:49:17.957Z,0.60
2022-12-13T11:51:51.700Z,0.50
2022-12-13T11:54:27.165Z,0.50
2022-12-13T11:57:00.345Z,0.50
2022-12-13T11:59:40.110Z,0.60
2022-12-13T12:02:17.732Z,0.70
2022-12-13T12:04:51.551Z,0.70
2022-12-13T12:07:33.631Z,0.70
2022-12-13T12:10:08.067Z,0.80
2022-12-13T12:12:37.686Z,0.80
2022-12-13T12:15:16.222Z,0.70
2022-12-13T12:17:45.018Z,0.60
2022-12-13T12:20:24.057Z,0.60
2022-12-13T12:23:02.714Z,0.50
2022-12-13T12:25:38.431Z,0.50
2022-12-13T12:28:21.221Z,0.30
2022-12-13T12:30:57.201Z,0.40
2022-12-13T12:33:36.085Z,0.50
2022-12-13T12:36:27.110Z,0.50
2022-12-13T12:39:26.606Z,0.50
2022-12-13T12:42:07.825Z,0.50
2022-12-13T12:44:47.450Z,0.60
2022-12-13T12:50:35.126Z,0.80
2022-12-13T12:53:16.174Z,0.80
2022-12-13T12:55:55.480Z,0.80
2022-12-13T12:58:29.604Z,0.90
2022-12-13T13:01:12.970Z,0.90
2022-12-13T13:03:43.328Z,0.90
2022-12-13T13:06:15.624Z,0.90
2022-12-13T13:08:51.670Z,0.80
2022-12-13T13:11:26.251Z,0.80
2022-12-13T13:14:08.284Z,0.70
2022-12-13T13:16:39.128Z,0.80
2022-12-13T13:19:27.372Z,0.80
2022-12-13T13:22:01.423Z,0.90
2022-12-13T13:24:31.601Z,0.80
2022-12-13T13:27:28.907Z,0.90
2022-12-13T13:30:07.335Z,0.90
2022-12-13T13:32:40.736Z,0.90
2022-12-13T13:35:53.335Z,0.90
2022-12-13T13:39:01.725Z,1.00
2022-12-13T13:42:09.078Z,1.00
2022-12-13T13:45:06.805Z,1.00
2022-12-13T13:47:44.489Z,1.10
2022-12-13T13:51:00.121Z,1.10
2022-12-13T13:53:57.779Z,1.10
2022-12-13T13:56:57.065Z,1.10
2022-12-13T14:00:19.844Z,1.10
2022-12-13T14:03:41.934Z,1.10
2022-12-13T14:06:46.485Z,1.10
2022-12-13T14:09:49.066Z,1.10
2022-12-13T14:12:53.750Z,1.00
2022-12-13T14:16:04.887Z,1.00
2022-12-13T14:19:12.415Z,1.00
2022-12-13T14:21:50.631Z,1.00
2022-12-13T14:24:25.965Z,1.00
2022-12-13T14:27:14.582Z,1.00
2022-12-13T14:29:48.564Z,0.90
2022-12-13T14:32:29.975Z,0.90
2022-12-13T14:35:26.106Z,0.90
2022-12-13T14:37:57.765Z,0.90
2022-12-13T14:40:30.062Z,0.90
2022-12-13T14:42:59.157Z,0.90
2022-12-13T14:45:29.553Z,0.90
2022-12-13T14:47:59.765Z,0.90
2022-12-13T14:50:33.039Z,0.90
2022-12-13T14:53:03.124Z,0.90
2022-12-13T14:55:33.278Z,0.90
2022-12-13T14:58:02.233Z,0.90
2022-12-13T15:00:33.689Z,0.90
2022-12-13T15:03:03.462Z,0.80
2022-12-13T15:05:35.257Z,0.80
2022-12-13T15:08:10.666Z,0.80
2022-12-13T15:10:41.859Z,0.70
2022-12-13T15:13:29.404Z,0.70
2022-12-13T15:16:01.241Z,0.70
2022-12-13T15:18:30.999Z,0.60
2022-12-13T15:21:00.427Z,0.70
2022-12-13T15:23:31.373Z,0.70
2022-12-13T15:26:02.098Z,0.70
2022-12-13T15:28:34.044Z,0.70
2022-12-13T15:31:03.279Z,0.80
2022-12-13T15:33:36.561Z,0.70
2022-12-13T15:36:11.685Z,0.70
2022-12-13T15:38:43.429Z,0.70
2022-12-13T15:41:18.963Z,0.60
2022-12-13T15:43:51.294Z,0.70
2022-12-13T15:46:26.799Z,0.70
2022-12-13T15:48:56.990Z,0.70
2022-12-13T15:51:30.033Z,0.70
2022-12-13T15:54:04.219Z,0.60
2022-12-13T15:56:35.478Z,0.60
2022-12-13T15:59:05.401Z,0.60
2022-12-13T16:01:35.984Z,0.70
2022-12-13T16:04:05.482Z,0.60
2022-12-13T16:06:35.535Z,0.60
2022-12-13T16:09:07.917Z,0.60
2022-12-13T16:11:40.371Z,0.60
2022-12-13T16:14:40.147Z,0.60
2022-12-13T16:17:24.477Z,0.60
2022-12-13T16:19:53.273Z,0.60
2022-12-13T16:22:24.166Z,0.60
2022-12-13T16:24:53.109Z,0.50
2022-12-13T16:27:21.588Z,0.40
2022-12-13T16:29:49.719Z,0.40
2022-12-13T16:32:17.772Z,0.30
2022-12-13T16:34:46.448Z,0.30
2022-12-13T16:37:26.361Z,0.30
2022-12-13T16:39:56.664Z,0.30
2022-12-13T16:42:26.572Z,0.30
2022-12-13T16:45:11.602Z,0.30
2022-12-13T16:47:48.914Z,0.30
2022-12-13T16:50:19.706Z,0.30
2022-12-13T16:52:48.714Z,0.30
2022-12-13T16:55:18.217Z,0.30
2022-12-13T16:57:55.844Z,0.20
2022-12-13T17:00:24.023Z,0.20
2022-12-13T17:02:52.094Z,0.10
2022-12-13T17:05:20.792Z,0.10
2022-12-13T17:07:48.955Z,0.00
2022-12-13T17:10:19.299Z,0.00
2022-12-13T17:12:47.372Z,0.00
2022-12-13T17:15:15.985Z,0.00
2022-12-13T17:17:46.380Z,-0.10
2022-12-13T17:20:16.509Z,-0.10
2022-12-13T17:22:45.865Z,-0.10
2022-12-13T17:25:14.415Z,-0.20
2022-12-13T17:27:45.663Z,-0.30
2022-12-13T17:30:16.965Z,-0.40
2022-12-13T17:32:45.053Z,-0.40
2022-12-13T17:35:17.916Z,-0.30
2022-12-13T17:37:46.672Z,-0.30
2022-12-13T17:40:14.689Z,-0.40
2022-12-13T17:42:45.318Z,-0.40
2022-12-13T17:45:13.475Z,-0.50
2022-12-13T17:47:42.750Z,-0.50
2022-12-13T17:50:11.087Z,-0.60
2022-12-13T17:52:39.745Z,-0.70
2022-12-13T17:55:11.208Z,-0.70
2022-12-13T17:57:44.412Z,-0.70
2022-12-13T18:00:14.772Z,-0.70
2022-12-13T18:02:43.037Z,-0.80
2022-12-13T18:05:25.568Z,-0.80
2022-12-13T18:07:53.651Z,-0.80
2022-12-13T18:10:26.365Z,-0.90
2022-12-13T18:12:59.139Z,-0.90
2022-12-13T18:15:27.466Z,-0.80
2022-12-13T18:18:13.716Z,-0.80
2022-12-13T18:20:42.963Z,-0.80
2022-12-13T18:23:11.373Z,-0.90
2022-12-13T18:25:40.228Z,-1.00
2022-12-13T18:28:10.644Z,-1.00
2022-12-13T18:30:39.573Z,-1.00
2022-12-13T18:33:07.626Z,-1.00
2022-12-13T18:35:35.684Z,-1.10
2022-12-13T18:38:03.696Z,-1.10
2022-12-13T18:40:32.316Z,-1.10
2022-12-13T18:43:00.318Z,-1.20
2022-12-13T18:45:29.735Z,-1.20
2022-12-13T18:47:57.737Z,-1.20
2022-12-13T18:50:25.878Z,-1.20
2022-12-13T18:52:53.958Z,-1.20
2022-12-13T18:55:22.302Z,-1.20
2022-12-13T18:57:51.827Z,-1.30
2022-12-13T19:00:20.817Z,-1.40
2022-12-13T19:02:50.321Z,-1.30
2022-12-13T19:05:18.613Z,-1.40
2022-12-13T19:07:46.599Z,-1.40
2022-12-13T19:10:14.645Z,-1.40
2022-12-13T19:12:42.679Z,-1.40
2022-12-13T19:15:12.854Z,-1.40
2022-12-13T19:17:40.860Z,-1.50
2022-12-13T19:20:11.366Z,-1.50
2022-12-13T19:22:39.422Z,-1.50
2022-12-13T19:25:09.058Z,-1.50
2022-12-13T19:27:37.270Z,-1.60
2022-12-13T19:30:06.441Z,-1.60
2022-12-13T19:32:34.445Z,-1.60
2022-12-13T19:35:02.531Z,-1.60
2022-12-13T19:37:32.112Z,-1.60
2022-12-13T19:40:00.148Z,-1.70
2022-12-13T19:42:28.265Z,-1.60
2022-12-13T19:44:56.333Z,-1.70
2022-12-13T19:47:24.368Z,-1.70
2022-12-13T19:49:52.413Z,-1.70
2022-12-13T19:52:20.379Z,-1.70
2022-12-13T19:54:49.782Z,-1.70
2022-12-13T19:57:17.826Z,-1.80
2022-12-13T19:59:45.893Z,-1.80
2022-12-13T20:02:15.901Z,-1.80
2022-12-13T20:04:44.624Z,-1.80
2022-12-13T20:07:12.827Z,-1.80
2022-12-13T20:09:41.978Z,-1.90
2022-12-13T20:12:11.436Z,-1.90
2022-12-13T20:14:39.501Z,-1.90
2022-12-13T20:17:08.178Z,-1.90
2022-12-13T20:19:36.351Z,-1.90
2022-12-13T20:22:04.527Z,-1.90
2022-12-13T20:24:32.700Z,-1.90
2022-12-13T20:27:00.773Z,-2.00
2022-12-13T20:29:30.287Z,-2.00
2022-12-13T20:31:58.325Z,-2.00
2022-12-13T20:34:26.383Z,-2.00
2022-12-13T20:36:54.410Z,-2.00
2022-12-13T20:39:22.642Z,-2.00
2022-12-13T20:41:50.675Z,-2.00
2022-12-13T20:44:20.243Z,-2.00
2022-12-13T20:46:49.714Z,-2.00
2022-12-13T20:49:17.862Z,-2.00
2022-12-13T20:51:45.931Z,-2.10
2022-12-13T20:54:14.026Z,-2.10
2022-12-13T20:56:42.194Z,-2.10
2022-12-13T20:59:13.666Z,-2.10
2022-12-13T21:01:42.822Z,-2.20
2022-12-13T21:04:12.818Z,-2.10
2022-12-13T21:06:42.729Z,-2.10
2022-12-13T21:09:12.465Z,-2.10
2022-12-13T21:11:42.146Z,-2.20
2022-12-13T21:14:18.791Z,-2.10
2022-12-13T21:16:50.891Z,-2.10
2022-12-13T21:19:24.969Z,-2.20
2022-12-13T21:21:53.979Z,-2.10
2022-12-13T21:24:23.952Z,-2.10
2022-12-13T21:26:52.694Z,-2.10
2022-12-13T21:29:20.815Z,-2.10
2022-12-13T21:31:50.950Z,-2.20
2022-12-13T21:34:24.531Z,-2.20
2022-12-13T21:37:03.323Z,-2.20
2022-12-13T21:39:31.393Z,-2.20
2022-12-13T21:41:59.913Z,-2.20
2022-12-13T21:44:43.842Z,-2.30
2022-12-13T21:47:13.117Z,-2.30
2022-12-13T21:49:48.830Z,-2.30
2022-12-13T21:52:17.057Z,-2.30
2022-12-13T21:54:45.097Z,-2.30
2022-12-13T21:57:30.592Z,-2.30
2022-12-13T21:59:58.629Z,-2.30
2022-12-13T22:02:26.612Z,-2.30
2022-12-13T22:04:57.395Z,-2.40
2022-12-13T22:07:26.852Z,-2.40
2022-12-13T22:09:55.245Z,-2.40
2022-12-13T22:12:25.249Z,-2.40
2022-12-13T22:14:54.218Z,-2.40
2022-12-13T22:17:29.663Z,-2.40
2022-12-13T22:20:02.607Z,-2.40
2022-12-13T22:22:30.695Z,-2.40
2022-12-13T22:24:58.741Z,-2.50
2022-12-13T22:27:26.827Z,-2.50
2022-12-13T22:29:56.856Z,-2.50
2022-12-13T22:32:26.089Z,-2.50
2022-12-13T22:34:54.143Z,-2.50
2022-12-13T22:37:24.039Z,-2.50
2022-12-13T22:39:52.033Z,-2.50
2022-12-13T22:42:20.511Z,-2.50
2022-12-13T22:44:48.749Z,-2.50
2022-12-13T22:47:17.083Z,-2.50
2022-12-13T22:49:45.156Z,-2.50
2022-12-13T22:52:16.824Z,-2.50
2022-12-13T22:54:46.243Z,-2.50
2022-12-13T22:57:14.281Z,-2.50
2022-12-13T22:59:42.289Z,-2.50
2022-12-13T23:02:10.515Z,-2.60
2022-12-13T23:04:38.677Z,-2.60
2022-12-13T23:07:06.803Z,-2.60
2022-12-13T23:09:34.790Z,-2.60
2022-12-13T23:12:21.354Z,-2.60
2022-12-13T23:14:49.382Z,-2.60
2022-12-13T23:17:18.107Z,-2.70
2022-12-13T23:19:50.407Z,-2.70
2022-12-13T23:22:21.740Z,-2.70
2022-12-13T23:24:50.372Z,-2.70
2022-12-13T23:27:21.161Z,-2.70
2022-12-13T23:29:49.422Z,-2.70
2022-12-13T23:32:17.505Z,-2.70
2022-12-13T23:34:45.493Z,-2.70
2022-12-13T23:37:13.669Z,-2.70
2022-12-13T23:39:41.685Z,-2.60
2022-12-13T23:42:09.867Z,-2.60
2022-12-13T23:44:39.303Z,-2.60
2022-12-13T23:47:07.336Z,-2.60
2022-12-13T23:49:35.332Z,-2.60
2022-12-13T23:52:03.344Z,-2.60
2022-12-13T23:54:31.352Z,-2.70
2022-12-13T23:56:59.467Z,-2.70
2022-12-13T23:59:29.039Z,-2.70
